Time;durP1;ratioP1;P1;durP2;ratioP2;P2;SDS_P1;SDS_P2;PMS_P1;PMS_P2;Temp;Humidity;BMP_temperature;BMP_pressure;BME280_temperature;BME280_humidity;BME280_pressure;Samples;Min_cycle;Max_cycle;Signal;HPM_P1;HPM_P2
2024/03/03 00:01:53;;;;;;;18.10;13.90;;;;;;;;;;103752;1289;545511;-73
2024/03/03 00:05:31;;;;;;;19.50;15.00;;;;;;;;;;103961;1288;545636;-72
2024/03/03 00:09:09;;;;;;;19.80;14.90;;;;;;;;;;103882;1288;545312;-70
2024/03/03 00:12:55;;;;;;;16.80;12.10;;;;;;;;;;103875;1290;544956;-73
2024/03/03 00:16:23;;;;;;;17.10;12.10;;;;;;;;;;103784;1291;545068;-73
2024/03/03 00:19:57;;;;;;;15.80;11.30;;;;;;;;;;103970;1301;544955;-73
2024/03/03 00:23:46;;;;;;;16.30;12.00;;;;;;;;;;103788;1289;544876;-72
2024/03/03 00:27:29;;;;;;;;;;;;;;;;;;;;;
2024/03/03 00:30:57;;;;;;;18.20;11.60;;;;;;;;;;103713;1292;545292;-72
2024/03/03 00:34:31;;;;;;;17.00;11.20;;;;;;;;;;103770;1292;544769;-73
2024/03/03 00:38:10;;;;;;;16.90;12.20;;;;;;;;;;103751;1291;544884;-72
2024/03/03 00:41:48;;;;;;;17.00;12.50;;;;;;;;;;103528;1297;545156;-72
2024/03/03 00:45:23;;;;;;;19.20;13.70;;;;;;;;;;103607;1292;545079;-72
2024/03/03 00:49:27;;;;;;;18.30;13.60;;;;;;;;;;103717;1291;545274;-72
2024/03/03 00:52:58;;;;;;;16.50;12.10;;;;;;;;;;103747;1293;544916;-72
2024/03/03 00:56:15;;;;;;;17.70;12.80;;;;;;;;;;103813;1289;544863;-71
2024/03/03 00:59:54;;;;;;;19.10;13.80;;;;;;;;;;103824;1288;544847;-71
2024/03/03 01:03:31;;;;;;;19.90;14.20;;;;;;;;;;103744;1291;544987;-72
2024/03/03 01:07:15;;;;;;;19.40;14.10;;;;;;;;;;103712;1295;545683;-72
2024/03/03 01:10:48;;;;;;;20.20;13.90;;;;;;;;;;103567;1295;545104;-72
2024/03/03 01:14:23;;;;;;;19.20;13.90;;;;;;;;;;103620;1289;544972;-71
2024/03/03 01:18:00;;;;;;;20.20;15.10;;;;;;;;;;103699;1289;544966;-72
2024/03/03 01:21:39;;;;;;;18.90;14.40;;;;;;;;;;103735;1291;545635;-72
2024/03/03 01:25:17;;;;;;;20.80;14.40;;;;;;;;;;104068;1286;544908;-71
2024/03/03 01:28:59;;;;;;;19.90;14.00;;;;;;;;;;103731;1289;545512;-71
2024/03/03 01:32:31;;;;;;;20.60;14.00;;;;;;;;;;103844;1301;544899;-71
2024/03/03 01:36:16;;;;;;;20.00;14.40;;;;;;;;;;103850;1289;545640;-72
2024/03/03 01:39:46;;;;;;;19.90;14.20;;;;;;;;;;104090;1288;545137;-73
2024/03/03 01:43:25;;;;;;;20.60;14.90;;;;;;;;;;103945;1295;545476;-71
2024/03/03 01:47:00;;;;;;;20.50;14.30;;;;;;;;;;103980;1288;545544;-71
2024/03/03 01:50:38;;;;;;;19.30;13.70;;;;;;;;;;103735;1293;545706;-72
2024/03/03 01:54:15;;;;;;;20.90;15.30;;;;;;;;;;104060;1292;545003;-71
2024/03/03 01:58:00;;;;;;;22.70;16.80;;;;;;;;;;103857;1289;544942;-72
2024/03/03 02:01:33;;;;;;;23.00;16.20;;;;;;;;;;104130;1288;544767;-71
2024/03/03 02:05:07;;;;;;;20.60;15.00;;;;;;;;;;103915;1289;544770;-72
2024/03/03 02:08:46;;;;;;;23.00;14.40;;;;;;;;;;103798;1291;545141;-72
2024/03/03 02:12:27;;;;;;;21.50;15.10;;;;;;;;;;104428;1285;545797;-72
2024/03/03 02:16:00;;;;;;;24.80;16.10;;;;;;;;;;103788;1292;544984;-72
2024/03/03 02:19:43;;;;;;;22.50;15.70;;;;;;;;;;103675;1289;544995;-71
2024/03/03 02:23:25;;;;;;;20.90;15.10;;;;;;;;;;103763;1289;545686;-71
2024/03/03 02:26:53;;;;;;;21.70;14.90;;;;;;;;;;104168;1293;544855;-71
2024/03/03 02:30:32;;;;;;;20.40;14.20;;;;;;;;;;103753;1294;544952;-72
2024/03/03 02:34:07;;;;;;;21.50;15.50;;;;;;;;;;104479;1289;546314;-72
2024/03/03 02:37:59;;;;;;;23.90;18.20;;;;;;;;;;104001;1288;544979;-72
2024/03/03 02:41:23;;;;;;;20.70;16.00;;;;;;;;;;103777;1292;544687;-71
2024/03/03 02:45:03;;;;;;;22.50;15.80;;;;;;;;;;103760;1289;545453;-72
2024/03/03 02:48:34;;;;;;;20.40;14.10;;;;;;;;;;103899;1289;545578;-72
2024/03/03 02:52:18;;;;;;;18.80;13.40;;;;;;;;;;103805;1292;545592;-71
2024/03/03 02:56:06;;;;;;;20.10;13.70;;;;;;;;;;103757;1295;545241;-72
2024/03/03 02:59:33;;;;;;;17.40;13.00;;;;;;;;;;103629;1291;546073;-72
2024/03/03 03:03:09;;;;;;;16.50;11.20;;;;;;;;;;103772;1292;545967;-72
2024/03/03 03:06:50;;;;;;;14.60;10.30;;;;;;;;;;104118;1288;544862;-72
2024/03/03 03:10:30;;;;;;;14.50;9.20;;;;;;;;;;103752;1294;544938;-71
2024/03/03 03:13:59;;;;;;;14.40;9.30;;;;;;;;;;103799;1288;544950;-71
2024/03/03 03:17:37;;;;;;;17.30;10.20;;;;;;;;;;103528;1291;546000;-71
2024/03/03 03:21:13;;;;;;;16.60;10.90;;;;;;;;;;103442;1298;545018;-69
2024/03/03 03:24:54;;;;;;;14.90;9.90;;;;;;;;;;103958;1292;545989;-72
2024/03/03 03:28:29;;;;;;;13.50;8.50;;;;;;;;;;103711;1291;546281;-72
2024/03/03 03:32:03;;;;;;;12.30;8.30;;;;;;;;;;103712;1295;545487;-72
2024/03/03 03:35:44;;;;;;;12.80;9.20;;;;;;;;;;103745;1291;545799;-73
2024/03/03 03:39:27;;;;;;;14.40;9.90;;;;;;;;;;103713;1291;545455;-72
2024/03/03 03:43:09;;;;;;;13.70;9.00;;;;;;;;;;103847;1289;545205;-71
2024/03/03 03:47:00;;;;;;;13.40;8.10;;;;;;;;;;103817;1289;546722;-72
2024/03/03 03:50:13;;;;;;;12.80;8.30;;;;;;;;;;104070;1289;545047;-72
2024/03/03 03:53:52;;;;;;;13.30;8.90;;;;;;;;;;103598;1296;545191;-70
2024/03/03 03:57:29;;;;;;;13.80;9.20;;;;;;;;;;103759;1291;544984;-72
2024/03/03 04:01:16;;;;;;;14.00;10.00;;;;;;;;;;104361;1295;544737;-72
2024/03/03 04:04:48;;;;;;;15.30;10.30;;;;;;;;;;103661;1293;545101;-71
2024/03/03 04:08:22;;;;;;;16.10;9.40;;;;;;;;;;103523;1295;544863;-71
2024/03/03 04:12:05;;;;;;;13.70;8.80;;;;;;;;;;103599;1298;545924;-71
2024/03/03 04:15:35;;;;;;;13.10;8.10;;;;;;;;;;104785;1282;544609;-71
2024/03/03 04:19:13;;;;;;;12.30;8.00;;;;;;;;;;103435;1294;546039;-72
2024/03/03 04:22:55;;;;;;;14.00;9.00;;;;;;;;;;103910;1289;545868;-72
2024/03/03 04:26:31;;;;;;;14.70;9.50;;;;;;;;;;103778;1289;545488;-72
2024/03/03 04:30:29;;;;;;;13.80;9.10;;;;;;;;;;103846;1302;544761;-72
2024/03/03 04:34:24;;;;;;;14.40;10.10;;;;;;;;;;103855;1289;544782;-71
2024/03/03 04:37:21;;;;;;;16.10;10.80;;;;;;;;;;104054;1288;544899;-72
2024/03/03 04:40:58;;;;;;;15.80;11.40;;;;;;;;;;103776;1292;544963;-71
2024/03/03 04:44:42;;;;;;;16.00;11.70;;;;;;;;;;103853;1289;544867;-72
2024/03/03 04:48:17;;;;;;;16.90;11.40;;;;;;;;;;103714;1291;544855;-72
2024/03/03 04:51:56;;;;;;;14.70;11.10;;;;;;;;;;103829;1289;544815;-72
2024/03/03 04:55:48;;;;;;;15.70;10.20;;;;;;;;;;103578;1295;545495;-71
2024/03/03 04:59:10;;;;;;;18.30;12.10;;;;;;;;;;103843;1288;544805;-72
2024/03/03 05:02:43;;;;;;;17.00;11.60;;;;;;;;;;103596;1290;544924;-70
2024/03/03 05:06:21;;;;;;;16.10;11.60;;;;;;;;;;103737;1292;545858;-72
2024/03/03 05:10:11;;;;;;;;;;;;;;;;;;;;;
2024/03/03 05:13:42;;;;;;;15.20;10.90;;;;;;;;;;103779;1290;545075;-72
2024/03/03 05:17:12;;;;;;;17.40;12.00;;;;;;;;;;103905;1295;545248;-73
2024/03/03 05:20:46;;;;;;;16.50;10.70;;;;;;;;;;103740;1302;544787;-72
2024/03/03 05:24:27;;;;;;;14.30;10.20;;;;;;;;;;104148;1286;545296;-72
2024/03/03 05:28:20;;;;;;;16.10;11.20;;;;;;;;;;103854;1296;544750;-72
2024/03/03 05:31:43;;;;;;;16.60;11.70;;;;;;;;;;103790;1289;544890;-72
2024/03/03 05:35:21;;;;;;;17.20;10.80;;;;;;;;;;103608;1292;545679;-72
2024/03/03 05:38:58;;;;;;;16.10;11.10;;;;;;;;;;103746;1289;544861;-72
2024/03/03 05:42:39;;;;;;;15.60;10.30;;;;;;;;;;103847;1289;545423;-72
2024/03/03 05:46:13;;;;;;;16.20;10.50;;;;;;;;;;103724;1292;545858;-72
2024/03/03 05:49:51;;;;;;;15.90;11.20;;;;;;;;;;103709;1291;544756;-72
2024/03/03 05:53:27;;;;;;;16.70;10.70;;;;;;;;;;103810;1292;545136;-72
2024/03/03 05:57:06;;;;;;;16.90;9.90;;;;;;;;;;103777;1291;545170;-71
2024/03/03 06:00:43;;;;;;;14.90;10.30;;;;;;;;;;103920;1292;544925;-73
2024/03/03 06:04:25;;;;;;;15.50;11.10;;;;;;;;;;104091;1292;545028;-71
2024/03/03 06:08:11;;;;;;;16.50;12.30;;;;;;;;;;103234;1296;545173;-72
2024/03/03 06:11:35;;;;;;;15.90;11.10;;;;;;;;;;103772;1289;546369;-72
2024/03/03 06:15:15;;;;;;;15.10;10.50;;;;;;;;;;103380;1295;545035;-72
2024/03/03 06:18:52;;;;;;;17.00;10.30;;;;;;;;;;103729;1292;545039;-71
2024/03/03 06:22:27;;;;;;;14.80;9.90;;;;;;;;;;104247;1285;545103;-71
2024/03/03 06:26:08;;;;;;;16.50;11.00;;;;;;;;;;103625;1291;545136;-71
2024/03/03 06:29:41;;;;;;;18.40;11.50;;;;;;;;;;103735;1294;546156;-70
2024/03/03 06:33:54;;;;;;;;;;;;;;;;;;;;;
2024/03/03 06:36:57;;;;;;;15.90;11.10;;;;;;;;;;103757;1291;545982;-71
2024/03/03 06:40:35;;;;;;;18.10;10.90;;;;;;;;;;103889;1289;545627;-72
2024/03/03 06:44:16;;;;;;;16.00;11.30;;;;;;;;;;103777;1292;545026;-73
2024/03/03 06:47:50;;;;;;;18.70;10.90;;;;;;;;;;103806;1288;545554;-70
2024/03/03 06:51:37;;;;;;;15.80;11.00;;;;;;;;;;104167;1285;544896;-71
2024/03/03 06:55:06;;;;;;;16.20;10.50;;;;;;;;;;103808;1292;544817;-72
2024/03/03 06:58:56;;;;;;;17.20;11.80;;;;;;;;;;103741;1289;544958;-72
2024/03/03 07:02:20;;;;;;;20.20;13.80;;;;;;;;;;103828;1290;544937;-71
2024/03/03 07:06:06;;;;;;;17.60;12.40;;;;;;;;;;103733;1291;545547;-72
2024/03/03 07:09:36;;;;;;;16.10;10.40;;;;;;;;;;103746;1292;544954;-71
2024/03/03 07:13:15;;;;;;;16.00;10.90;;;;;;;;;;104281;1286;544853;-71
2024/03/03 07:16:50;;;;;;;17.40;11.40;;;;;;;;;;103727;1292;544967;-72
2024/03/03 07:20:32;;;;;;;16.30;11.30;;;;;;;;;;103670;1295;548488;-71
2024/03/03 07:24:05;;;;;;;14.20;9.90;;;;;;;;;;104005;1289;545784;-72
2024/03/03 07:27:41;;;;;;;16.80;11.40;;;;;;;;;;104027;1290;545127;-72
2024/03/03 07:31:22;;;;;;;17.20;12.60;;;;;;;;;;103751;1289;545778;-70
2024/03/03 07:34:56;;;;;;;16.60;11.80;;;;;;;;;;103754;1291;545165;-72
2024/03/03 07:38:37;;;;;;;17.10;11.40;;;;;;;;;;103615;1295;545339;-70
2024/03/03 07:42:14;;;;;;;15.20;10.20;;;;;;;;;;103761;1292;544997;-69
2024/03/03 07:45:49;;;;;;;16.60;11.10;;;;;;;;;;104265;1285;545589;-72
2024/03/03 07:49:22;;;;;;;18.80;12.10;;;;;;;;;;103579;1293;545660;-72
2024/03/03 07:53:04;;;;;;;17.80;12.00;;;;;;;;;;103643;1295;544955;-71
2024/03/03 07:56:40;;;;;;;17.60;11.90;;;;;;;;;;103623;1291;544953;-70
2024/03/03 08:00:19;;;;;;;17.80;12.60;;;;;;;;;;104544;1295;544976;-73
2024/03/03 08:04:09;;;;;;;19.10;13.90;;;;;;;;;;103656;1289;545373;-72
2024/03/03 08:07:33;;;;;;;17.60;12.40;;;;;;;;;;103699;1289;545473;-71
2024/03/03 08:11:17;;;;;;;18.10;12.60;;;;;;;;;;103890;1292;545591;-72
2024/03/03 08:14:49;;;;;;;18.80;13.10;;;;;;;;;;103763;1295;545697;-72
2024/03/03 08:18:25;;;;;;;18.20;13.30;;;;;;;;;;103635;1291;544984;-71
2024/03/03 08:22:09;;;;;;;18.00;12.10;;;;;;;;;;103722;1289;544870;-72
2024/03/03 08:25:44;;;;;;;17.30;12.30;;;;;;;;;;103847;1288;544832;-72
2024/03/03 08:29:23;;;;;;;18.10;12.10;;;;;;;;;;103740;1291;545383;-73
2024/03/03 08:32:52;;;;;;;18.20;11.90;;;;;;;;;;103675;1292;546041;-72
2024/03/03 08:36:34;;;;;;;15.80;11.10;;;;;;;;;;103788;1291;544998;-73
2024/03/03 08:40:10;;;;;;;15.90;10.60;;;;;;;;;;103733;1302;544928;-72
2024/03/03 08:43:51;;;;;;;14.90;10.90;;;;;;;;;;103612;1292;545910;-72
2024/03/03 08:47:28;;;;;;;15.20;11.00;;;;;;;;;;103519;1294;547030;-71
2024/03/03 08:51:06;;;;;;;16.40;11.00;;;;;;;;;;103618;1298;545070;-70
2024/03/03 08:54:49;;;;;;;16.10;10.70;;;;;;;;;;104061;1285;548094;-72
2024/03/03 08:58:19;;;;;;;14.50;9.90;;;;;;;;;;103699;1291;545072;-73
2024/03/03 09:01:55;;;;;;;17.20;10.40;;;;;;;;;;104470;1283;544949;-72
2024/03/03 09:05:33;;;;;;;16.20;11.20;;;;;;;;;;103989;1289;545567;-73
2024/03/03 09:09:10;;;;;;;17.00;11.10;;;;;;;;;;103756;1290;545172;-73
2024/03/03 09:12:44;;;;;;;16.40;10.40;;;;;;;;;;103641;1289;544954;-71
2024/03/03 09:16:25;;;;;;;16.00;10.20;;;;;;;;;;104040;1286;545890;-72
2024/03/03 09:20:07;;;;;;;15.50;10.70;;;;;;;;;;103499;1292;544980;-73
2024/03/03 09:23:41;;;;;;;15.10;11.10;;;;;;;;;;103856;1289;545461;-73
2024/03/03 09:27:31;;;;;;;15.80;10.40;;;;;;;;;;103774;1289;545911;-73
2024/03/03 09:30:55;;;;;;;15.80;10.20;;;;;;;;;;103747;1292;544760;-72
2024/03/03 09:34:33;;;;;;;17.90;11.40;;;;;;;;;;103826;1290;545478;-71
2024/03/03 09:38:10;;;;;;;15.40;10.70;;;;;;;;;;104630;1287;545083;-70
2024/03/03 09:42:07;;;;;;;16.70;10.30;;;;;;;;;;103690;1302;545375;-72
2024/03/03 09:45:32;;;;;;;18.80;11.20;;;;;;;;;;103869;1289;545743;-72
2024/03/03 09:49:03;;;;;;;16.90;10.80;;;;;;;;;;103797;1292;544745;-70
2024/03/03 09:52:44;;;;;;;16.40;11.30;;;;;;;;;;103717;1289;544890;-71
2024/03/03 09:56:19;;;;;;;17.30;11.60;;;;;;;;;;103659;1292;545099;-71
2024/03/03 09:59:56;;;;;;;20.30;11.70;;;;;;;;;;103553;1294;545059;-72
2024/03/03 10:03:55;;;;;;;18.70;12.00;;;;;;;;;;104146;1286;549100;-72
2024/03/03 10:07:11;;;;;;;20.70;13.00;;;;;;;;;;103765;1290;544741;-73
2024/03/03 10:10:49;;;;;;;19.50;11.50;;;;;;;;;;103851;1295;545158;-72
2024/03/03 10:14:26;;;;;;;17.50;11.40;;;;;;;;;;103759;1295;544760;-72
2024/03/03 10:18:02;;;;;;;19.80;12.60;;;;;;;;;;103771;1289;545140;-72
2024/03/03 10:21:39;;;;;;;20.60;12.00;;;;;;;;;;103709;1298;544994;-72
2024/03/03 10:25:18;;;;;;;19.90;13.00;;;;;;;;;;103829;1291;545050;-71
2024/03/03 10:29:04;;;;;;;17.40;12.10;;;;;;;;;;103591;1294;545036;-73
2024/03/03 10:33:02;;;;;;;17.90;12.20;;;;;;;;;;103934;1310;548013;-73
2024/03/03 10:36:09;;;;;;;19.30;12.40;;;;;;;;;;103729;1293;545894;-73
2024/03/03 10:39:50;;;;;;;18.80;12.70;;;;;;;;;;104084;1288;545102;-72
2024/03/03 10:43:20;;;;;;;16.40;11.60;;;;;;;;;;104511;1283;546266;-73
2024/03/03 10:47:04;;;;;;;15.70;10.90;;;;;;;;;;103644;1292;544815;-73
2024/03/03 10:50:39;;;;;;;17.20;11.00;;;;;;;;;;103769;1289;545421;-73
2024/03/03 10:54:18;;;;;;;15.80;10.50;;;;;;;;;;103843;1288;545076;-70
2024/03/03 10:58:13;;;;;;;15.10;10.70;;;;;;;;;;103765;1295;544824;-73
2024/03/03 11:01:33;;;;;;;15.10;10.20;;;;;;;;;;103745;1292;544888;-73
2024/03/03 11:05:11;;;;;;;14.20;10.20;;;;;;;;;;103780;1289;545002;-73
2024/03/03 11:08:51;;;;;;;13.70;9.50;;;;;;;;;;103638;1295;544898;-72
2024/03/03 11:12:25;;;;;;;15.40;10.10;;;;;;;;;;103775;1292;544921;-73
2024/03/03 11:16:03;;;;;;;15.60;10.00;;;;;;;;;;103674;1289;544944;-72
2024/03/03 11:19:42;;;;;;;14.90;9.90;;;;;;;;;;104576;1282;545173;-72
2024/03/03 11:23:20;;;;;;;14.20;9.30;;;;;;;;;;104127;1289;544840;-71
2024/03/03 11:27:02;;;;;;;15.90;10.00;;;;;;;;;;103734;1290;545152;-72
2024/03/03 11:30:31;;;;;;;14.30;9.90;;;;;;;;;;103639;1291;544708;-73
2024/03/03 11:34:08;;;;;;;15.10;10.30;;;;;;;;;;103841;1292;545262;-71
2024/03/03 11:37:47;;;;;;;15.80;10.80;;;;;;;;;;104007;1288;544856;-72
2024/03/03 11:41:20;;;;;;;14.70;9.60;;;;;;;;;;103951;1289;545444;-71
2024/03/03 11:45:03;;;;;;;13.70;8.90;;;;;;;;;;103616;1297;545092;-71
2024/03/03 11:48:47;;;;;;;13.40;9.00;;;;;;;;;;103786;1290;545392;-71
2024/03/03 11:52:45;;;;;;;15.00;9.30;;;;;;;;;;103803;1290;545117;-72
2024/03/03 11:55:54;;;;;;;13.90;9.20;;;;;;;;;;103787;1293;544890;-72
2024/03/03 11:59:32;;;;;;;14.00;9.70;;;;;;;;;;103763;1291;544980;-72
2024/03/03 12:03:09;;;;;;;14.20;9.50;;;;;;;;;;103892;1294;545387;-72
2024/03/03 12:06:47;;;;;;;14.30;9.70;;;;;;;;;;103780;1292;544740;-73
2024/03/03 12:10:25;;;;;;;14.10;9.50;;;;;;;;;;103999;1288;545328;-70
2024/03/03 12:14:04;;;;;;;13.20;9.70;;;;;;;;;;103899;1295;544896;-72
2024/03/03 12:17:38;;;;;;;13.50;9.50;;;;;;;;;;103815;1289;545270;-71
2024/03/03 12:21:12;;;;;;;15.00;9.20;;;;;;;;;;103825;1289;545053;-72
2024/03/03 12:24:55;;;;;;;16.10;9.60;;;;;;;;;;103787;1295;545662;-72
2024/03/03 12:28:32;;;;;;;13.60;9.20;;;;;;;;;;103892;1290;544984;-71
2024/03/03 12:32:08;;;;;;;15.10;9.70;;;;;;;;;;103664;1292;545854;-73
2024/03/03 12:35:46;;;;;;;14.30;8.80;;;;;;;;;;103781;1290;544769;-71
2024/03/03 12:39:19;;;;;;;11.60;7.90;;;;;;;;;;105862;1286;544942;-72
2024/03/03 12:43:02;;;;;;;13.30;8.70;;;;;;;;;;103799;1291;545720;-71
2024/03/03 12:46:40;;;;;;;13.60;8.40;;;;;;;;;;103835;1288;544796;-72
2024/03/03 12:50:17;;;;;;;14.60;8.70;;;;;;;;;;103758;1288;544944;-72
2024/03/03 12:53:53;;;;;;;13.40;9.00;;;;;;;;;;103891;1289;545881;-72
2024/03/03 12:57:31;;;;;;;12.60;7.90;;;;;;;;;;103779;1298;544809;-72
2024/03/03 13:01:11;;;;;;;12.20;8.00;;;;;;;;;;103632;1295;544686;-71
2024/03/03 13:04:48;;;;;;;13.40;8.00;;;;;;;;;;103707;1291;545134;-73
2024/03/03 13:08:22;;;;;;;10.70;7.20;;;;;;;;;;103829;1293;545562;-74
2024/03/03 13:12:01;;;;;;;12.70;8.10;;;;;;;;;;103850;1291;544915;-72
2024/03/03 13:15:38;;;;;;;12.30;8.10;;;;;;;;;;103753;1289;544995;-71
2024/03/03 13:19:17;;;;;;;11.90;7.30;;;;;;;;;;103798;1295;544864;-71
2024/03/03 13:23:14;;;;;;;11.60;7.30;;;;;;;;;;103721;1289;544968;-73
2024/03/03 13:26:30;;;;;;;12.00;7.80;;;;;;;;;;103877;1288;545454;-73
2024/03/03 13:30:12;;;;;;;13.80;8.00;;;;;;;;;;103461;1295;545618;-72
2024/03/03 13:33:45;;;;;;;13.30;7.40;;;;;;;;;;103733;1290;545096;-73
2024/03/03 13:37:22;;;;;;;13.50;7.40;;;;;;;;;;103810;1292;545028;-73
2024/03/03 13:41:00;;;;;;;12.50;6.90;;;;;;;;;;103782;1289;545593;-72
2024/03/03 13:44:41;;;;;;;10.40;6.60;;;;;;;;;;103763;1292;544994;-72
2024/03/03 13:48:18;;;;;;;13.00;7.00;;;;;;;;;;103781;1290;545015;-74
2024/03/03 13:51:48;;;;;;;12.10;7.60;;;;;;;;;;103920;1289;544770;-73
2024/03/03 13:55:30;;;;;;;12.70;8.40;;;;;;;;;;103512;1294;545258;-73
2024/03/03 13:59:08;;;;;;;13.30;8.00;;;;;;;;;;103770;1292;545123;-72
2024/03/03 14:02:45;;;;;;;11.30;7.90;;;;;;;;;;103644;1291;545639;-72
2024/03/03 14:06:22;;;;;;;13.80;8.40;;;;;;;;;;103776;1292;545014;-71
2024/03/03 14:09:56;;;;;;;12.20;7.80;;;;;;;;;;103578;1297;545839;-72
2024/03/03 14:13:37;;;;;;;11.90;7.00;;;;;;;;;;103952;1289;545207;-72
2024/03/03 14:17:20;;;;;;;10.70;6.60;;;;;;;;;;103957;1288;548237;-72
2024/03/03 14:20:52;;;;;;;10.40;6.40;;;;;;;;;;103872;1289;545387;-72
2024/03/03 14:24:30;;;;;;;13.00;7.10;;;;;;;;;;104063;1288;544922;-74
2024/03/03 14:28:07;;;;;;;11.60;7.00;;;;;;;;;;104493;1282;545177;-73
2024/03/03 14:31:45;;;;;;;10.50;6.80;;;;;;;;;;103794;1289;544957;-73
2024/03/03 14:35:18;;;;;;;11.40;7.20;;;;;;;;;;104254;1287;544788;-71
2024/03/03 14:38:59;;;;;;;12.70;7.30;;;;;;;;;;104031;1291;545619;-72
2024/03/03 14:42:37;;;;;;;10.80;6.70;;;;;;;;;;103813;1292;545220;-73
2024/03/03 14:46:15;;;;;;;11.90;6.60;;;;;;;;;;103718;1290;545422;-71
2024/03/03 14:50:01;;;;;;;11.40;7.20;;;;;;;;;;103742;1292;544737;-73
2024/03/03 14:53:25;;;;;;;12.90;7.60;;;;;;;;;;103728;1295;545413;-73
2024/03/03 14:57:08;;;;;;;12.30;7.50;;;;;;;;;;103650;1291;545198;-73
2024/03/03 15:00:48;;;;;;;12.80;7.30;;;;;;;;;;103726;1292;545938;-72
2024/03/03 15:04:22;;;;;;;13.20;7.60;;;;;;;;;;104028;1292;545136;-73
2024/03/03 15:07:55;;;;;;;12.60;7.20;;;;;;;;;;103740;1291;545579;-72
2024/03/03 15:11:39;;;;;;;12.20;7.40;;;;;;;;;;103721;1291;544843;-72
2024/03/03 15:15:17;;;;;;;12.10;7.30;;;;;;;;;;103769;1289;544963;-73
2024/03/03 15:18:51;;;;;;;12.00;7.60;;;;;;;;;;104086;1286;545075;-72
2024/03/03 15:22:29;;;;;;;11.60;7.80;;;;;;;;;;103837;1289;545480;-72
2024/03/03 15:26:07;;;;;;;12.60;7.50;;;;;;;;;;103610;1294;545084;-73
2024/03/03 15:29:44;;;;;;;11.40;7.60;;;;;;;;;;104131;1292;545609;-72
2024/03/03 15:33:22;;;;;;;12.70;7.60;;;;;;;;;;103865;1289;545486;-72
2024/03/03 15:36:59;;;;;;;11.70;6.80;;;;;;;;;;103562;1298;545201;-72
2024/03/03 15:40:42;;;;;;;;;;;;;;;;;;;;;
2024/03/03 15:44:14;;;;;;;12.90;7.80;;;;;;;;;;103712;1292;545004;-73
2024/03/03 15:47:51;;;;;;;12.60;8.10;;;;;;;;;;103782;1299;545029;-73
2024/03/03 15:51:33;;;;;;;12.50;8.10;;;;;;;;;;103905;1289;545699;-72
2024/03/03 15:55:06;;;;;;;14.50;8.70;;;;;;;;;;103794;1289;544970;-72
2024/03/03 15:58:44;;;;;;;13.20;7.60;;;;;;;;;;103844;1290;545007;-73
2024/03/03 16:02:21;;;;;;;13.80;8.40;;;;;;;;;;103833;1294;544706;-73
2024/03/03 16:06:01;;;;;;;14.90;9.20;;;;;;;;;;103743;1289;545357;-71
2024/03/03 16:09:35;;;;;;;15.60;9.60;;;;;;;;;;103720;1290;545709;-73
2024/03/03 16:13:13;;;;;;;17.90;11.00;;;;;;;;;;103757;1294;545959;-72
2024/03/03 16:16:51;;;;;;;19.20;10.90;;;;;;;;;;103649;1292;545403;-70
2024/03/03 16:20:25;;;;;;;16.60;10.40;;;;;;;;;;103840;1289;545631;-72
2024/03/03 16:24:06;;;;;;;18.10;10.80;;;;;;;;;;103991;1291;545334;-73
2024/03/03 16:27:44;;;;;;;17.40;10.60;;;;;;;;;;103580;1292;544937;-72
2024/03/03 16:31:20;;;;;;;15.50;9.80;;;;;;;;;;103456;1297;544865;-73
2024/03/03 16:35:02;;;;;;;16.30;10.10;;;;;;;;;;103744;1290;544913;-72
2024/03/03 16:38:35;;;;;;;18.00;9.80;;;;;;;;;;103822;1289;545893;-71
2024/03/03 16:42:13;;;;;;;18.40;11.30;;;;;;;;;;103814;1295;545754;-71
2024/03/03 16:45:51;;;;;;;16.70;9.90;;;;;;;;;;103745;1289;545035;-72
2024/03/03 16:49:29;;;;;;;17.70;10.80;;;;;;;;;;103792;1292;545018;-72
2024/03/03 16:53:06;;;;;;;16.90;10.80;;;;;;;;;;104061;1300;546466;-72
2024/03/03 16:56:45;;;;;;;17.20;10.60;;;;;;;;;;103790;1289;545117;-71
2024/03/03 17:00:20;;;;;;;17.40;10.30;;;;;;;;;;103920;1288;544812;-72
2024/03/03 17:03:58;;;;;;;18.30;10.30;;;;;;;;;;103818;1301;545007;-72
2024/03/03 17:07:35;;;;;;;16.70;10.30;;;;;;;;;;104652;1280;545198;-73
2024/03/03 17:11:13;;;;;;;18.50;10.70;;;;;;;;;;103763;1290;544785;-72
2024/03/03 17:14:53;;;;;;;19.30;10.40;;;;;;;;;;103770;1291;544827;-70
2024/03/03 17:18:28;;;;;;;17.40;10.30;;;;;;;;;;103777;1291;545024;-73
2024/03/03 17:22:10;;;;;;;19.00;9.80;;;;;;;;;;103744;1289;547952;-72
2024/03/03 17:25:50;;;;;;;18.50;10.10;;;;;;;;;;104654;1283;545667;-73
2024/03/03 17:29:16;;;;;;;19.30;10.80;;;;;;;;;;104493;1282;545098;-72
2024/03/03 17:32:58;;;;;;;19.20;10.40;;;;;;;;;;103930;1292;545786;-72
2024/03/03 17:36:35;;;;;;;16.50;9.20;;;;;;;;;;103803;1291;546221;-72
2024/03/03 17:40:23;;;;;;;15.50;8.80;;;;;;;;;;103865;1289;544846;-71
2024/03/03 17:43:49;;;;;;;15.90;9.10;;;;;;;;;;103936;1291;544848;-73
2024/03/03 17:47:24;;;;;;;16.00;9.10;;;;;;;;;;103801;1289;545521;-73
2024/03/03 17:51:07;;;;;;;18.60;11.40;;;;;;;;;;103785;1291;545551;-72
2024/03/03 17:54:44;;;;;;;20.80;13.20;;;;;;;;;;103884;1292;544813;-72
2024/03/03 17:58:20;;;;;;;23.70;14.10;;;;;;;;;;103843;1291;545309;-72
2024/03/03 18:01:57;;;;;;;23.50;15.40;;;;;;;;;;103860;1289;544936;-71
2024/03/03 18:05:35;;;;;;;21.50;13.20;;;;;;;;;;103631;1292;545127;-71
2024/03/03 18:09:13;;;;;;;22.30;14.10;;;;;;;;;;103827;1295;545097;-71
2024/03/03 18:12:52;;;;;;;28.30;18.70;;;;;;;;;;104127;1289;545103;-72
2024/03/03 18:16:27;;;;;;;27.10;16.10;;;;;;;;;;103782;1295;544979;-73
2024/03/03 18:20:06;;;;;;;24.10;14.00;;;;;;;;;;103716;1288;545412;-73
2024/03/03 18:23:43;;;;;;;25.60;13.90;;;;;;;;;;103879;1289;544982;-73
2024/03/03 18:27:15;;;;;;;24.50;15.30;;;;;;;;;;103938;1289;545380;-71
2024/03/03 18:30:58;;;;;;;25.70;16.20;;;;;;;;;;103826;1291;544806;-71
2024/03/03 18:34:34;;;;;;;27.30;16.00;;;;;;;;;;103806;1294;545013;-71
2024/03/03 18:38:13;;;;;;;29.70;16.70;;;;;;;;;;103734;1289;545118;-71
2024/03/03 18:41:51;;;;;;;37.30;18.60;;;;;;;;;;104065;1291;544759;-73
2024/03/03 18:45:27;;;;;;;38.80;20.40;;;;;;;;;;103811;1291;544733;-73
2024/03/03 18:49:08;;;;;;;40.10;20.30;;;;;;;;;;103767;1292;545017;-72
2024/03/03 18:52:42;;;;;;;40.30;19.80;;;;;;;;;;103826;1289;545314;-72
2024/03/03 18:56:15;;;;;;;33.00;17.40;;;;;;;;;;103823;1290;545939;-73
2024/03/03 19:00:14;;;;;;;31.40;16.30;;;;;;;;;;103762;1291;545416;-74
2024/03/03 19:03:43;;;;;;;38.10;18.50;;;;;;;;;;104523;1285;545475;-70
2024/03/03 19:07:15;;;;;;;41.10;19.10;;;;;;;;;;103800;1294;545139;-72
2024/03/03 19:10:51;;;;;;;37.00;19.30;;;;;;;;;;103866;1289;544911;-70
2024/03/03 19:14:27;;;;;;;39.00;19.80;;;;;;;;;;103823;1303;545400;-71
2024/03/03 19:18:04;;;;;;;45.20;20.10;;;;;;;;;;103731;1289;545145;-71
2024/03/03 19:21:42;;;;;;;45.40;21.90;;;;;;;;;;103827;1289;544968;-73
2024/03/03 19:25:42;;;;;;;47.70;23.60;;;;;;;;;;103839;1289;549255;-72
2024/03/03 19:28:57;;;;;;;44.70;23.60;;;;;;;;;;103885;1288;545068;-72
2024/03/03 19:32:43;;;;;;;45.10;23.20;;;;;;;;;;103785;1290;544957;-72
2024/03/03 19:36:12;;;;;;;43.60;22.10;;;;;;;;;;103799;1289;545083;-72
2024/03/03 19:39:53;;;;;;;36.10;19.80;;;;;;;;;;103873;1292;544769;-71
2024/03/03 19:43:29;;;;;;;37.00;19.60;;;;;;;;;;104391;1288;544902;-71
2024/03/03 19:47:07;;;;;;;31.20;17.60;;;;;;;;;;103839;1290;544988;-72
2024/03/03 19:50:42;;;;;;;33.60;19.30;;;;;;;;;;103847;1291;544899;-72
2024/03/03 19:54:20;;;;;;;34.00;19.20;;;;;;;;;;104404;1282;545932;-72
2024/03/03 19:57:56;;;;;;;33.50;20.40;;;;;;;;;;103793;1289;545077;-72
2024/03/03 20:01:34;;;;;;;31.30;19.40;;;;;;;;;;103764;1290;545008;-72
2024/03/03 20:05:12;;;;;;;31.60;18.90;;;;;;;;;;103884;1292;544852;-73
2024/03/03 20:09:10;;;;;;;30.90;19.00;;;;;;;;;;103632;1291;544984;-73
2024/03/03 20:12:26;;;;;;;26.70;18.10;;;;;;;;;;103831;1289;544923;-72
2024/03/03 20:16:04;;;;;;;25.60;17.10;;;;;;;;;;103710;1290;544757;-71
2024/03/03 20:19:46;;;;;;;26.80;18.20;;;;;;;;;;103962;1288;544823;-73
2024/03/03 20:23:22;;;;;;;28.40;19.30;;;;;;;;;;103923;1290;544823;-72
2024/03/03 20:26:57;;;;;;;30.10;18.50;;;;;;;;;;103638;1294;545002;-74
2024/03/03 20:30:33;;;;;;;26.20;17.10;;;;;;;;;;103775;1291;544996;-70
2024/03/03 20:34:15;;;;;;;28.90;18.60;;;;;;;;;;103730;1292;545011;-72
2024/03/03 20:37:48;;;;;;;30.00;19.50;;;;;;;;;;103786;1289;544953;-72
2024/03/03 20:41:26;;;;;;;29.80;21.00;;;;;;;;;;103786;1292;545475;-72